Time;durP1;ratioP1;P1;durP2;ratioP2;P2;SDS_P1;SDS_P2;PMS_P1;PMS_P2;Temp;Humidity;BMP_temperature;BMP_pressure;BME280_temperature;BME280_humidity;BME280_pressure;Samples;Min_cycle;Max_cycle;Signal;HPM_P1;HPM_P2
2023/07/16 00:00:15;;;;;;;13.20;12.20;;;20.90;99.90;;;;;;4955009;29;20234;-78
2023/07/16 00:02:41;;;;;;;13.47;12.30;;;20.90;99.90;;;;;;4948548;28;20229;-80
2023/07/16 00:05:09;;;;;;;13.73;12.53;;;21.00;99.90;;;;;;4947742;28;20202;-78
2023/07/16 00:07:36;;;;;;;13.60;12.37;;;20.90;99.90;;;;;;4949939;28;20230;-78
2023/07/16 00:10:03;;;;;;;13.03;11.70;;;20.90;99.90;;;;;;4957255;28;20226;-79
2023/07/16 00:12:30;;;;;;;12.37;11.37;;;20.80;99.90;;;;;;4954605;28;20215;-78
2023/07/16 00:14:58;;;;;;;12.00;11.10;;;20.80;99.90;;;;;;4954024;29;20689;-78
2023/07/16 00:17:24;;;;;;;10.77;9.97;;;20.70;99.90;;;;;;4957400;29;20206;-78
2023/07/16 00:19:51;;;;;;;10.30;9.50;;;20.70;99.90;;;;;;4943641;28;20256;-78
2023/07/16 00:22:18;;;;;;;10.03;9.33;;;20.60;99.90;;;;;;4955018;28;20250;-78
2023/07/16 00:24:45;;;;;;;10.10;9.40;;;20.60;99.90;;;;;;4951860;28;21659;-79
2023/07/16 00:27:11;;;;;;;10.47;9.77;;;20.60;99.90;;;;;;4953879;28;20826;-79
2023/07/16 00:29:38;;;;;;;10.90;10.10;;;20.60;99.90;;;;;;4952541;28;20228;-79
2023/07/16 00:32:07;;;;;;;10.60;9.73;;;20.60;99.90;;;;;;4956338;28;20204;-79
2023/07/16 00:34:34;;;;;;;10.93;10.13;;;20.70;99.90;;;;;;4958235;29;20206;-79
2023/07/16 00:37:03;;;;;;;10.33;9.63;;;20.60;99.90;;;;;;4946298;29;20194;-78
2023/07/16 00:39:29;;;;;;;10.30;9.60;;;20.60;99.90;;;;;;4957738;29;20238;-77
2023/07/16 00:41:57;;;;;;;10.40;9.70;;;20.50;99.90;;;;;;4953440;28;20194;-79
2023/07/16 00:44:23;;;;;;;10.70;10.00;;;20.60;99.90;;;;;;4949743;28;20198;-79
2023/07/16 00:46:51;;;;;;;10.57;9.87;;;20.60;99.90;;;;;;4947909;28;20217;-79
2023/07/16 00:49:19;;;;;;;10.90;10.20;;;20.60;99.90;;;;;;4951874;28;20259;-78
2023/07/16 00:51:47;;;;;;;10.60;9.90;;;20.60;99.90;;;;;;4960483;29;20210;-79
2023/07/16 00:54:14;;;;;;;11.03;10.23;;;20.60;99.90;;;;;;4943762;29;20222;-79
2023/07/16 00:56:42;;;;;;;11.10;10.33;;;20.60;99.90;;;;;;4947996;28;20210;-78
2023/07/16 00:59:09;;;;;;;11.50;10.57;;;20.60;99.90;;;;;;4946914;28;20228;-79
2023/07/16 01:01:36;;;;;;;10.90;10.20;;;20.60;99.90;;;;;;4955507;28;20214;-78
2023/07/16 01:04:03;;;;;;;10.80;10.00;;;20.60;99.90;;;;;;4952723;28;20209;-79
2023/07/16 01:06:36;;;;;;;10.70;9.90;;;20.50;99.90;;;;;;4948228;28;20235;-79
2023/07/16 01:09:07;;;;;;;10.13;9.43;;;20.50;99.90;;;;;;4953910;28;20242;-79
2023/07/16 01:11:36;;;;;;;10.50;9.80;;;20.50;99.90;;;;;;4950349;29;20203;-79
2023/07/16 01:14:03;;;;;;;10.43;9.63;;;20.50;99.90;;;;;;4950414;28;20253;-78
2023/07/16 01:16:30;;;;;;;9.80;9.20;;;20.40;99.90;;;;;;4956510;29;20194;-79
2023/07/16 01:18:58;;;;;;;10.33;9.60;;;20.30;99.90;;;;;;4948026;28;20779;-79
2023/07/16 01:21:38;;;;;;;9.33;8.70;;;20.30;99.90;;;;;;4939934;28;20202;-79
2023/07/16 01:24:30;;;;;;;9.27;8.77;;;20.10;99.90;;;;;;4932309;29;20209;-79
2023/07/16 01:27:15;;;;;;;8.63;8.13;;;20.00;99.90;;;;;;4946031;28;20189;-79
2023/07/16 01:29:46;;;;;;;8.90;8.30;;;19.90;99.90;;;;;;4952267;29;20321;-78
2023/07/16 01:32:14;;;;;;;8.90;8.40;;;19.90;99.90;;;;;;4944662;28;20202;-78
2023/07/16 01:34:42;;;;;;;9.17;8.67;;;19.80;99.90;;;;;;4947435;28;20195;-78
2023/07/16 01:37:10;;;;;;;9.40;8.73;;;19.70;99.90;;;;;;4945373;28;20198;-79
2023/07/16 01:39:37;;;;;;;9.60;9.00;;;19.60;99.90;;;;;;4947366;29;20594;-78
2023/07/16 01:42:04;;;;;;;9.63;9.03;;;19.60;99.90;;;;;;4953543;28;20203;-79
2023/07/16 01:44:31;;;;;;;9.20;8.70;;;19.50;99.90;;;;;;4940134;29;20214;-78
2023/07/16 01:47:11;;;;;;;9.90;9.23;;;19.40;99.90;;;;;;4944433;29;20206;-79
2023/07/16 01:49:38;;;;;;;9.70;9.10;;;19.40;99.90;;;;;;4955826;29;20218;-79
2023/07/16 01:52:07;;;;;;;9.53;8.93;;;19.40;99.90;;;;;;4937304;28;20238;-79
2023/07/16 01:54:34;;;;;;;9.93;9.23;;;19.30;99.90;;;;;;4936847;29;20234;-77
2023/07/16 01:57:00;;;;;;;9.70;9.10;;;19.30;99.90;;;;;;4936520;29;20199;-79
2023/07/16 01:59:27;;;;;;;9.63;8.93;;;19.30;99.90;;;;;;4938677;28;20226;-78
2023/07/16 02:01:56;;;;;;;9.77;9.13;;;19.20;99.90;;;;;;4943794;29;20209;-79
2023/07/16 02:04:25;;;;;;;10.33;9.63;;;19.20;99.90;;;;;;4953376;28;20310;-79
2023/07/16 02:06:51;;;;;;;10.20;9.60;;;19.20;99.90;;;;;;4956946;29;20205;-78
2023/07/16 02:09:21;;;;;;;9.63;9.07;;;19.20;99.90;;;;;;4950824;29;20229;-79
2023/07/16 02:11:48;;;;;;;10.10;9.50;;;19.10;99.90;;;;;;4954353;28;20204;-78
2023/07/16 02:14:15;;;;;;;10.37;9.77;;;19.10;99.90;;;;;;4950933;28;20213;-79
2023/07/16 02:16:42;;;;;;;10.13;9.53;;;19.10;99.90;;;;;;4951439;28;20208;-81
2023/07/16 02:19:09;;;;;;;10.60;9.90;;;19.10;99.90;;;;;;4950096;28;20213;-79
2023/07/16 02:21:37;;;;;;;10.13;9.53;;;19.10;99.90;;;;;;4950744;28;20570;-78
2023/07/16 02:24:04;;;;;;;10.50;9.80;;;19.10;99.90;;;;;;4950707;28;20213;-78
2023/07/16 02:26:31;;;;;;;3.33;3.13;;;19.00;99.90;;;;;;4944126;29;20223;-78
2023/07/16 02:28:59;;;;;;;3.27;3.07;;;19.00;99.90;;;;;;4948542;28;20762;-79
2023/07/16 02:31:25;;;;;;;4.47;3.00;;;19.00;99.90;;;;;;4941668;28;20209;-78
2023/07/16 02:33:52;;;;;;;3.30;3.10;;;19.00;99.90;;;;;;4944729;29;20233;-78
2023/07/16 02:36:19;;;;;;;3.53;3.23;;;19.00;99.90;;;;;;4950163;28;20214;-79
2023/07/16 02:38:47;;;;;;;3.53;3.23;;;19.00;99.90;;;;;;4947049;29;20728;-79
2023/07/16 02:41:14;;;;;;;8.80;8.30;;;19.00;99.90;;;;;;4958510;28;20193;-77
2023/07/16 02:43:41;;;;;;;7.20;6.80;;;18.90;99.90;;;;;;4953828;29;20197;-79
2023/07/16 02:46:08;;;;;;;3.60;3.33;;;18.80;99.90;;;;;;4947642;28;20199;-78
2023/07/16 02:48:34;;;;;;;3.30;3.10;;;18.80;99.90;;;;;;4952548;28;20648;-79
2023/07/16 02:51:02;;;;;;;3.50;3.30;;;18.70;99.90;;;;;;4944934;28;20682;-78
2023/07/16 02:53:29;;;;;;;3.40;3.10;;;18.60;99.90;;;;;;4949850;28;20710;-78
2023/07/16 02:55:58;;;;;;;3.33;3.10;;;18.60;99.90;;;;;;4951186;29;20220;-78
2023/07/16 02:58:24;;;;;;;3.10;2.90;;;18.50;99.90;;;;;;4953282;28;20287;-78
2023/07/16 03:00:51;;;;;;;3.47;3.27;;;18.40;99.90;;;;;;4951961;29;20207;-79
2023/07/16 03:03:18;;;;;;;3.47;3.17;;;18.50;99.90;;;;;;4946832;29;20223;-78
2023/07/16 03:05:45;;;;;;;3.47;3.17;;;18.50;99.90;;;;;;4947181;28;20204;-78
2023/07/16 03:08:12;;;;;;;3.57;3.27;;;18.40;99.90;;;;;;4944879;28;20203;-78
2023/07/16 03:10:38;;;;;;;4.37;3.60;;;18.50;99.90;;;;;;4945063;28;20192;-79
2023/07/16 03:13:07;;;;;;;3.73;3.43;;;18.60;99.90;;;;;;4941536;29;20223;-78
2023/07/16 03:15:33;;;;;;;3.90;3.60;;;18.60;99.90;;;;;;4945626;28;20675;-78
2023/07/16 03:18:02;;;;;;;3.57;3.30;;;18.60;99.90;;;;;;4961996;28;20194;-79
2023/07/16 03:20:29;;;;;;;3.43;3.23;;;18.70;99.90;;;;;;4954234;29;20287;-80
2023/07/16 03:22:56;;;;;;;3.40;3.10;;;18.70;99.90;;;;;;4934804;28;20267;-78
2023/07/16 03:25:22;;;;;;;3.50;3.20;;;18.70;99.90;;;;;;4937368;29;20197;-79
2023/07/16 03:27:49;;;;;;;3.27;3.07;;;18.70;99.90;;;;;;4940519;29;20712;-80
2023/07/16 03:30:18;;;;;;;3.70;3.40;;;18.70;99.90;;;;;;4952762;28;21166;-78
2023/07/16 03:32:45;;;;;;;3.33;3.13;;;18.70;99.90;;;;;;4941607;29;20203;-78
2023/07/16 03:35:12;;;;;;;4.03;3.63;;;18.70;99.90;;;;;;4942576;29;20225;-78
2023/07/16 03:37:39;;;;;;;4.13;3.40;;;18.70;99.90;;;;;;4935847;29;20205;-78
2023/07/16 03:40:15;;;;;;;3.30;3.10;;;18.70;99.90;;;;;;4930493;29;20296;-80
2023/07/16 03:42:44;;;;;;;3.47;3.27;;;18.70;99.90;;;;;;4956337;29;20199;-78
2023/07/16 03:45:11;;;;;;;3.50;3.30;;;18.70;99.90;;;;;;4957031;28;20203;-78
2023/07/16 03:47:40;;;;;;;3.20;3.00;;;18.70;99.90;;;;;;4957680;28;20195;-77
2023/07/16 03:50:08;;;;;;;3.30;3.10;;;18.70;99.90;;;;;;4941910;29;20225;-77
2023/07/16 03:52:35;;;;;;;3.27;3.03;;;18.70;99.90;;;;;;4931174;29;20204;-77
2023/07/16 03:55:03;;;;;;;3.13;2.93;;;18.70;99.90;;;;;;4933386;29;20287;-78
2023/07/16 03:57:29;;;;;;;3.33;3.13;;;18.70;99.90;;;;;;4941828;29;20219;-77
2023/07/16 03:59:56;;;;;;;3.23;3.03;;;18.70;99.90;;;;;;4939294;29;20235;-81
2023/07/16 04:02:24;;;;;;;3.20;2.90;;;18.70;99.90;;;;;;4943277;29;20251;-78
2023/07/16 04:04:52;;;;;;;3.30;3.10;;;18.70;99.90;;;;;;4944788;29;20203;-79
2023/07/16 04:07:19;;;;;;;2.90;2.70;;;18.60;99.90;;;;;;4951025;28;20197;-77
2023/07/16 04:09:46;;;;;;;3.13;2.80;;;18.50;99.90;;;;;;4950292;28;20637;-77
2023/07/16 04:12:13;;;;;;;3.70;2.80;;;18.50;99.90;;;;;;4948286;28;20205;-77
2023/07/16 04:14:40;;;;;;;3.37;2.90;;;18.50;99.90;;;;;;4955862;28;20221;-77
2023/07/16 04:17:06;;;;;;;3.73;2.90;;;18.50;99.90;;;;;;4950159;28;20287;-77
2023/07/16 04:19:33;;;;;;;3.27;3.00;;;18.40;99.90;;;;;;4951057;28;20217;-77
2023/07/16 04:22:02;;;;;;;3.97;3.00;;;18.40;99.90;;;;;;4951590;28;20243;-77
2023/07/16 04:24:41;;;;;;;4.30;2.80;;;18.40;99.90;;;;;;4949291;28;20194;-77
2023/07/16 04:27:08;;;;;;;2.87;2.67;;;18.40;99.90;;;;;;4940855;28;20991;-77
2023/07/16 04:29:35;;;;;;;2.83;2.63;;;18.40;99.90;;;;;;4941264;29;20230;-77
2023/07/16 04:32:02;;;;;;;3.17;2.70;;;18.40;99.90;;;;;;4955530;29;20205;-79
2023/07/16 04:34:29;;;;;;;3.57;2.77;;;18.40;99.90;;;;;;4948213;28;20627;-85
2023/07/16 04:36:56;;;;;;;2.87;2.67;;;18.40;99.90;;;;;;4934284;28;20618;-80
2023/07/16 04:39:24;;;;;;;3.00;2.80;;;18.40;99.90;;;;;;4941481;28;20231;-80
2023/07/16 04:41:51;;;;;;;3.20;3.00;;;18.30;99.90;;;;;;4950856;28;20708;-78
2023/07/16 04:44:18;;;;;;;2.90;2.70;;;18.30;99.90;;;;;;4948386;28;20210;-76
2023/07/16 04:46:45;;;;;;;3.03;2.70;;;18.30;99.90;;;;;;4947303;28;20214;-77
2023/07/16 04:49:15;;;;;;;4.33;3.10;;;18.30;99.90;;;;;;4954564;28;20630;-77
2023/07/16 04:51:41;;;;;;;2.93;2.73;;;18.30;99.90;;;;;;4943195;29;20209;-77
2023/07/16 04:54:08;;;;;;;4.00;2.97;;;18.30;99.90;;;;;;4943152;29;20259;-77
2023/07/16 04:56:37;;;;;;;3.20;2.90;;;18.30;99.90;;;;;;4941738;28;20564;-77
2023/07/16 04:59:03;;;;;;;3.90;2.90;;;18.40;99.90;;;;;;4947202;28;20240;-76
2023/07/16 05:01:30;;;;;;;3.30;3.00;;;18.30;99.90;;;;;;4943259;28;20209;-80
2023/07/16 05:03:57;;;;;;;2.93;2.73;;;18.30;99.90;;;;;;4932574;29;20719;-79
2023/07/16 05:06:24;;;;;;;3.03;2.77;;;18.30;99.90;;;;;;4937254;29;20213;-78
2023/07/16 05:08:51;;;;;;;3.00;2.70;;;18.30;99.90;;;;;;4932277;29;20221;-79
2023/07/16 05:11:18;;;;;;;2.97;2.77;;;18.30;99.90;;;;;;4936492;29;20234;-79
2023/07/16 05:13:46;;;;;;;3.00;2.70;;;18.30;99.90;;;;;;4934812;29;20219;-79
2023/07/16 05:16:12;;;;;;;5.60;3.07;;;18.40;99.90;;;;;;4936284;29;20281;-80
2023/07/16 05:18:39;;;;;;;3.17;2.70;;;18.40;99.90;;;;;;4935934;29;20281;-79
2023/07/16 05:21:06;;;;;;;2.93;2.73;;;18.40;99.90;;;;;;4936427;29;20275;-77
2023/07/16 05:23:33;;;;;;;2.80;2.60;;;18.50;99.90;;;;;;4930869;28;20830;-81
2023/07/16 05:26:00;;;;;;;3.07;2.77;;;18.50;99.90;;;;;;4937211;29;20211;-80
2023/07/16 05:28:26;;;;;;;2.93;2.70;;;18.50;99.90;;;;;;4944149;29;20246;-80
2023/07/16 05:31:00;;;;;;;3.20;2.60;;;18.50;99.90;;;;;;4938132;29;20209;-79
2023/07/16 05:33:27;;;;;;;2.83;2.60;;;18.60;99.90;;;;;;4932244;29;20197;-79
2023/07/16 05:35:54;;;;;;;2.90;2.70;;;18.50;99.90;;;;;;4936918;29;20626;-81
2023/07/16 05:38:21;;;;;;;3.73;2.67;;;18.50;99.90;;;;;;4931883;28;20210;-80
2023/07/16 05:40:47;;;;;;;3.10;2.80;;;18.60;99.90;;;;;;4934178;29;20206;-77
2023/07/16 05:43:14;;;;;;;2.97;2.77;;;18.70;99.90;;;;;;4932344;29;20254;-80
2023/07/16 05:45:41;;;;;;;2.90;2.60;;;18.80;99.90;;;;;;4936259;29;20194;-80
2023/07/16 05:48:09;;;;;;;3.27;2.97;;;19.10;99.90;;;;;;4929713;28;20237;-80
2023/07/16 05:50:36;;;;;;;4.10;2.90;;;19.40;99.90;;;;;;4930858;29;20208;-81
2023/07/16 05:53:03;;;;;;;2.97;2.60;;;19.50;99.90;;;;;;4931737;29;20628;-78
2023/07/16 05:55:30;;;;;;;4.47;2.80;;;19.50;99.90;;;;;;4932064;29;20251;-77
2023/07/16 05:57:56;;;;;;;2.83;2.53;;;19.40;99.90;;;;;;4927987;28;20199;-76
2023/07/16 06:00:23;;;;;;;3.77;2.60;;;19.30;99.90;;;;;;4931773;29;20243;-77
2023/07/16 06:02:50;;;;;;;3.43;2.60;;;19.30;99.90;;;;;;4931233;29;20288;-79
2023/07/16 06:05:18;;;;;;;3.10;2.80;;;19.30;99.90;;;;;;4935668;29;20270;-75
2023/07/16 06:07:45;;;;;;;4.63;2.90;;;19.30;99.90;;;;;;4939313;29;20206;-76
2023/07/16 06:10:12;;;;;;;3.20;2.70;;;19.20;99.90;;;;;;4925347;29;20219;-76
2023/07/16 06:12:39;;;;;;;3.43;3.13;;;19.20;99.90;;;;;;4930572;29;20250;-76
2023/07/16 06:15:06;;;;;;;4.97;4.57;;;19.20;99.90;;;;;;4926655;29;20290;-76
2023/07/16 06:17:33;;;;;;;2.67;2.50;;;19.30;99.90;;;;;;4933313;28;20263;-76
2023/07/16 06:20:00;;;;;;;4.00;2.53;;;19.30;99.90;;;;;;4926178;29;20237;-77
2023/07/16 06:22:28;;;;;;;2.87;2.63;;;19.20;99.90;;;;;;4932584;29;20235;-78
2023/07/16 06:24:55;;;;;;;4.37;2.80;;;19.20;99.90;;;;;;4931590;29;20290;-76
2023/07/16 06:27:22;;;;;;;3.93;2.77;;;19.20;99.90;;;;;;4932405;29;20211;-76
2023/07/16 06:29:48;;;;;;;2.80;2.60;;;19.30;99.90;;;;;;4930201;29;20234;-76
2023/07/16 06:32:15;;;;;;;5.37;4.93;;;19.20;99.90;;;;;;4938876;28;20844;-76
2023/07/16 06:34:42;;;;;;;5.67;3.63;;;19.20;99.90;;;;;;4922932;29;20250;-76
2023/07/16 06:37:09;;;;;;;4.63;4.23;;;19.20;99.90;;;;;;4935387;29;20269;-76
2023/07/16 06:39:37;;;;;;;4.80;4.43;;;19.20;99.90;;;;;;4929195;29;20286;-76
2023/07/16 06:42:04;;;;;;;3.33;2.80;;;19.20;99.90;;;;;;4929270;29;20267;-76
2023/07/16 06:44:31;;;;;;;2.97;2.70;;;19.30;99.90;;;;;;4929575;29;20227;-76
2023/07/16 06:46:58;;;;;;;4.93;4.30;;;19.30;99.90;;;;;;4935839;29;20213;-76
2023/07/16 06:49:24;;;;;;;8.13;7.53;;;19.50;99.90;;;;;;4930394;29;20230;-76
2023/07/16 06:51:51;;;;;;;4.65;4.35;;;19.60;99.90;;;;;;4926163;29;20512;-76
2023/07/16 06:54:18;;;;;;;5.83;2.50;;;20.00;99.90;;;;;;4927173;29;20251;-77
2023/07/16 06:56:46;;;;;;;3.07;2.87;;;20.30;99.90;;;;;;4936628;28;20675;-77
2023/07/16 06:59:13;;;;;;;3.10;2.63;;;20.50;99.90;;;;;;4934815;29;20847;-78
2023/07/16 07:01:40;;;;;;;2.93;2.30;;;20.70;99.90;;;;;;4934679;29;20199;-78
2023/07/16 07:04:06;;;;;;;3.47;2.80;;;20.70;99.90;;;;;;4930617;29;20215;-75
2023/07/16 07:06:33;;;;;;;4.13;2.60;;;20.70;99.90;;;;;;4933854;29;20250;-77
2023/07/16 07:09:00;;;;;;;3.17;2.80;;;20.60;99.90;;;;;;4933800;29;20309;-79
2023/07/16 07:11:27;;;;;;;3.77;2.87;;;20.90;99.90;;;;;;4936113;29;20219;-78
2023/07/16 07:13:57;;;;;;;4.17;2.70;;;21.80;99.90;;;;;;4935494;29;20199;-79
2023/07/16 07:16:23;;;;;;;8.03;3.50;;;22.30;99.90;;;;;;4925505;29;20219;-78
2023/07/16 07:18:50;;;;;;;5.50;5.00;;;23.20;99.90;;;;;;4931571;29;20242;-78
2023/07/16 07:21:17;;;;;;;6.13;5.73;;;23.90;99.90;;;;;;4933026;29;20195;-78
2023/07/16 07:23:44;;;;;;;7.30;6.80;;;24.30;99.90;;;;;;4933683;29;20255;-78
2023/07/16 07:26:10;;;;;;;8.00;7.30;;;24.70;99.90;;;;;;4935160;28;20199;-78
2023/07/16 07:28:37;;;;;;;8.33;7.60;;;25.20;99.90;;;;;;4928262;29;20215;-78
2023/07/16 07:31:05;;;;;;;3.63;3.17;;;25.50;99.90;;;;;;4945626;29;20211;-78
2023/07/16 07:33:32;;;;;;;6.87;6.37;;;25.80;99.90;;;;;;4931362;29;20204;-79
2023/07/16 07:35:59;;;;;;;4.60;3.87;;;26.00;99.90;;;;;;4944565;29;20279;-78
2023/07/16 07:38:26;;;;;;;5.97;5.37;;;26.00;99.90;;;;;;4935040;28;20266;-78
2023/07/16 07:40:53;;;;;;;6.80;6.10;;;26.30;99.90;;;;;;4940345;28;20671;-79
2023/07/16 07:43:20;;;;;;;7.47;6.87;;;26.30;99.90;;;;;;4946280;28;20195;-78
2023/07/16 07:45:46;;;;;;;6.87;6.37;;;26.20;99.90;;;;;;4926830;29;20256;-79
2023/07/16 07:48:15;;;;;;;6.97;6.53;;;26.20;99.90;;;;;;4924923;29;20199;-78
2023/07/16 07:50:41;;;;;;;7.23;6.63;;;25.80;99.90;;;;;;4932905;29;20268;-78
2023/07/16 07:53:08;;;;;;;7.53;6.93;;;25.60;99.90;;;;;;4929502;29;20212;-79
2023/07/16 07:55:35;;;;;;;7.30;6.80;;;26.00;99.90;;;;;;4933625;29;20215;-79
2023/07/16 07:58:02;;;;;;;5.90;5.40;;;26.40;99.90;;;;;;4931216;29;20224;-78
2023/07/16 08:00:29;;;;;;;7.73;5.90;;;26.70;99.90;;;;;;4935684;29;20206;-78
2023/07/16 08:02:56;;;;;;;7.23;6.67;;;26.90;99.90;;;;;;4948264;28;20199;-79
2023/07/16 08:05:24;;;;;;;7.60;7.00;;;27.00;99.90;;;;;;4946189;29;20487;-78
2023/07/16 08:07:52;;;;;;;7.67;7.07;;;27.00;99.90;;;;;;4950076;28;20208;-78
2023/07/16 08:10:19;;;;;;;7.13;6.63;;;26.50;99.90;;;;;;4959706;29;20621;-79
2023/07/16 08:12:46;;;;;;;7.90;7.30;;;26.50;99.90;;;;;;4954503;29;20447;-78
2023/07/16 08:15:14;;;;;;;7.53;7.03;;;26.90;99.90;;;;;;4952556;28;20464;-79
2023/07/16 08:17:41;;;;;;;7.00;6.50;;;27.30;99.90;;;;;;4949949;28;20230;-78
2023/07/16 08:20:09;;;;;;;7.40;6.67;;;27.80;99.90;;;;;;4945183;28;20230;-79
2023/07/16 08:22:38;;;;;;;7.30;6.70;;;28.10;99.90;;;;;;4953561;28;20447;-79
2023/07/16 08:25:05;;;;;;;7.05;6.45;;;28.10;99.90;;;;;;4949481;28;20510;-79
2023/07/16 08:27:32;;;;;;;7.23;6.57;;;27.60;99.90;;;;;;4953531;28;20196;-78
2023/07/16 08:29:59;;;;;;;7.23;6.20;;;26.80;99.90;;;;;;4950956;29;20231;-79
2023/07/16 08:32:26;;;;;;;7.10;6.50;;;26.30;99.90;;;;;;4961320;28;20206;-79
2023/07/16 08:34:53;;;;;;;7.03;6.40;;;26.40;99.90;;;;;;4962230;29;20215;-79
2023/07/16 08:37:20;;;;;;;7.00;6.20;;;26.20;99.90;;;;;;4957142;28;20659;-78
2023/07/16 08:39:52;;;;;;;6.90;6.30;;;25.70;99.90;;;;;;4957467;28;20708;-79
2023/07/16 08:42:20;;;;;;;6.73;6.03;;;25.70;99.90;;;;;;4950052;29;20199;-78
2023/07/16 08:44:47;;;;;;;6.43;5.83;;;25.50;99.90;;;;;;4956150;28;20198;-79
2023/07/16 08:47:14;;;;;;;7.20;6.50;;;25.60;99.90;;;;;;4930585;29;20553;-78
2023/07/16 08:49:56;;;;;;;7.20;6.50;;;25.60;99.90;;;;;;4954553;28;20218;-77
2023/07/16 08:52:23;;;;;;;7.00;6.37;;;26.00;99.90;;;;;;4938491;29;20206;-78
2023/07/16 08:54:51;;;;;;;6.80;6.10;;;26.00;99.90;;;;;;4948224;28;20288;-79
2023/07/16 08:57:24;;;;;;;6.07;5.53;;;25.80;99.90;;;;;;4951872;28;20203;-84
2023/07/16 08:59:56;;;;;;;6.23;4.60;;;25.90;99.90;;;;;;4930845;29;20703;-80
2023/07/16 09:02:24;;;;;;;5.40;4.90;;;25.80;99.90;;;;;;4935011;29;20205;-79
2023/07/16 09:04:51;;;;;;;5.27;4.70;;;25.90;99.90;;;;;;4946961;28;20196;-78
2023/07/16 09:07:18;;;;;;;5.50;5.00;;;26.30;99.90;;;;;;4952032;28;20287;-79
2023/07/16 09:10:00;;;;;;;5.43;4.93;;;26.70;99.90;;;;;;4948139;29;20234;-78
2023/07/16 09:12:31;;;;;;;6.80;6.20;;;27.10;99.90;;;;;;4942058;29;20282;-79
2023/07/16 09:14:57;;;;;;;6.27;5.73;;;27.50;99.90;;;;;;4953691;28;20218;-79
2023/07/16 09:17:25;;;;;;;5.10;4.70;;;28.10;99.90;;;;;;4928869;29;20203;-77
2023/07/16 09:19:52;;;;;;;5.40;5.00;;;27.90;99.90;;;;;;4948692;29;20277;-79
2023/07/16 09:22:19;;;;;;;5.40;4.90;;;27.50;99.90;;;;;;4926627;29;20212;-78
2023/07/16 09:24:47;;;;;;;7.47;4.60;;;27.40;99.90;;;;;;4930992;29;20204;-78
2023/07/16 09:27:15;;;;;;;5.17;4.73;;;27.00;99.90;;;;;;4936329;28;20288;-78
2023/07/16 09:29:42;;;;;;;5.50;5.07;;;26.80;99.90;;;;;;4949140;29;20246;-79
2023/07/16 09:32:09;;;;;;;6.13;5.63;;;26.50;99.90;;;;;;4943547;28;20808;-78
2023/07/16 09:34:36;;;;;;;5.90;5.50;;;26.20;99.90;;;;;;4952363;28;20214;-78
2023/07/16 09:37:03;;;;;;;5.90;5.50;;;25.90;99.90;;;;;;4935504;28;20232;-79
2023/07/16 09:39:32;;;;;;;6.70;6.10;;;25.90;99.90;;;;;;4944135;28;20250;-79
2023/07/16 09:41:59;;;;;;;6.77;6.20;;;26.40;99.90;;;;;;4944627;29;20212;-79
2023/07/16 09:44:27;;;;;;;6.30;5.60;;;26.90;99.90;;;;;;4949711;28;20259;-79
2023/07/16 09:46:55;;;;;;;6.50;5.90;;;26.90;99.90;;;;;;4913986;29;20283;-77
2023/07/16 09:49:21;;;;;;;6.53;4.63;;;27.30;99.90;;;;;;4931336;29;20219;-78
2023/07/16 09:51:52;;;;;;;6.23;5.50;;;28.10;99.90;;;;;;4931124;29;20220;-78
2023/07/16 09:54:21;;;;;;;5.67;5.17;;;28.40;99.90;;;;;;4935801;29;20206;-78
2023/07/16 09:56:51;;;;;;;6.30;5.57;;;28.70;99.90;;;;;;4930651;29;20223;-78
2023/07/16 09:59:23;;;;;;;8.23;6.50;;;29.00;99.90;;;;;;4928531;29;20233;-78
2023/07/16 10:01:53;;;;;;;6.30;5.70;;;28.70;99.90;;;;;;4925008;29;20259;-77
2023/07/16 10:04:21;;;;;;;6.43;5.83;;;28.00;99.90;;;;;;4925101;29;20297;-78
2023/07/16 10:06:56;;;;;;;6.27;5.70;;;27.70;99.90;;;;;;4932788;29;20254;-78
2023/07/16 10:09:37;;;;;;;5.53;5.13;;;27.70;99.90;;;;;;4929779;29;20231;-78
2023/07/16 10:12:18;;;;;;;4.80;4.40;;;27.90;99.90;;;;;;4937025;29;20215;-78
2023/07/16 10:14:47;;;;;;;4.70;4.30;;;28.10;99.90;;;;;;4930759;29;20203;-78
2023/07/16 10:17:20;;;;;;;5.27;4.87;;;28.40;99.90;;;;;;4932162;29;20230;-78
2023/07/16 10:19:51;;;;;;;5.30;4.80;;;28.60;99.90;;;;;;4928847;29;20228;-80
2023/07/16 10:22:19;;;;;;;4.90;4.50;;;28.70;99.90;;;;;;4923017;29;20214;-77
2023/07/16 10:24:52;;;;;;;4.50;4.10;;;28.70;99.90;;;;;;4921495;29;20207;-77
2023/07/16 10:27:28;;;;;;;5.53;5.03;;;28.80;99.90;;;;;;4929891;29;20367;-77
2023/07/16 10:29:55;;;;;;;5.10;4.60;;;28.90;99.90;;;;;;4922727;29;20294;-77
2023/07/16 10:32:27;;;;;;;4.87;4.43;;;29.00;99.90;;;;;;4933168;29;20662;-77
2023/07/16 10:34:54;;;;;;;6.33;5.83;;;29.30;99.90;;;;;;4925771;29;20211;-76
2023/07/16 10:37:20;;;;;;;6.37;5.87;;;29.00;99.90;;;;;;4933495;29;20254;-77
2023/07/16 10:39:49;;;;;;;4.90;4.50;;;28.40;99.90;;;;;;4927734;29;20223;-77
2023/07/16 10:42:17;;;;;;;6.17;5.67;;;27.80;99.90;;;;;;4932085;29;20226;-76
2023/07/16 10:44:44;;;;;;;6.03;5.53;;;27.60;99.90;;;;;;4932783;29;20675;-77
2023/07/16 10:47:19;;;;;;;5.80;5.30;;;27.70;99.90;;;;;;4933081;29;20200;-77
2023/07/16 10:49:47;;;;;;;5.83;4.73;;;27.70;99.90;;;;;;4930605;28;20277;-77
2023/07/16 10:52:13;;;;;;;4.43;4.13;;;28.20;99.90;;;;;;4927091;29;20262;-77
2023/07/16 10:54:41;;;;;;;5.03;4.33;;;28.10;99.90;;;;;;4930515;29;20200;-77
2023/07/16 10:57:08;;;;;;;4.70;4.30;;;27.70;99.90;;;;;;4928728;29;20782;-77
2023/07/16 10:59:37;;;;;;;4.67;4.23;;;27.70;99.90;;;;;;4930098;29;20294;-77
2023/07/16 11:02:04;;;;;;;4.50;4.10;;;27.70;99.90;;;;;;4929534;28;20207;-77
2023/07/16 11:04:35;;;;;;;4.70;4.30;;;27.70;99.90;;;;;;4931715;29;20209;-77
2023/07/16 11:07:08;;;;;;;5.00;4.60;;;27.60;99.90;;;;;;4931356;29;20195;-77
2023/07/16 11:09:35;;;;;;;2.97;2.37;;;27.40;99.90;;;;;;4927357;29;20215;-77
2023/07/16 11:12:08;;;;;;;3.77;2.47;;;27.50;99.90;;;;;;4928877;29;20560;-77
2023/07/16 11:14:35;;;;;;;4.10;2.50;;;27.70;99.90;;;;;;4928641;29;20196;-77
2023/07/16 11:17:07;;;;;;;2.50;2.27;;;28.00;99.90;;;;;;4929472;29;20274;-76
2023/07/16 11:19:34;;;;;;;2.40;2.20;;;27.80;99.90;;;;;;4926217;29;20695;-77
2023/07/16 11:22:02;;;;;;;3.67;2.40;;;27.80;99.90;;;;;;4931814;29;20227;-76
2023/07/16 11:24:37;;;;;;;5.10;4.70;;;27.60;99.90;;;;;;4929731;29;20199;-77
2023/07/16 11:27:04;;;;;;;5.93;5.03;;;27.70;99.90;;;;;;4924400;29;20207;-77
2023/07/16 11:29:35;;;;;;;5.30;4.80;;;27.70;99.90;;;;;;4930866;29;20224;-77
2023/07/16 11:32:02;;;;;;;5.67;5.17;;;27.80;99.90;;;;;;4925596;29;20219;-77
2023/07/16 11:34:29;;;;;;;5.60;5.10;;;28.10;99.90;;;;;;4932681;29;20715;-77
2023/07/16 11:36:56;;;;;;;5.63;5.13;;;28.10;99.90;;;;;;4924737;29;20227;-77
2023/07/16 11:39:29;;;;;;;5.90;5.40;;;27.80;99.90;;;;;;4932967;29;20219;-77
2023/07/16 11:41:57;;;;;;;5.80;5.40;;;27.50;99.90;;;;;;4932727;29;20235;-77
2023/07/16 11:44:24;;;;;;;5.30;4.90;;;27.50;99.90;;;;;;4930746;29;20667;-77
2023/07/16 11:46:51;;;;;;;6.20;5.60;;;27.60;99.90;;;;;;4933021;29;20221;-76
2023/07/16 11:49:18;;;;;;;5.43;5.00;;;27.70;99.90;;;;;;4932521;29;20780;-76
2023/07/16 11:51:44;;;;;;;7.57;5.53;;;27.70;99.90;;;;;;4931623;29;20733;-76
2023/07/16 11:54:11;;;;;;;5.77;5.27;;;27.50;99.90;;;;;;4934247;29;20263;-76
2023/07/16 11:56:39;;;;;;;3.30;2.50;;;27.50;99.90;;;;;;4939222;29;20223;-80
2023/07/16 11:59:08;;;;;;;3.37;3.07;;;27.40;99.90;;;;;;4940599;29;20231;-78
2023/07/16 12:01:34;;;;;;;4.40;2.40;;;27.40;99.90;;;;;;4937234;29;20206;-79
2023/07/16 12:04:01;;;;;;;5.87;5.47;;;27.40;99.90;;;;;;4941581;29;20658;-78
2023/07/16 12:06:28;;;;;;;5.57;5.20;;;27.40;99.90;;;;;;4933530;28;20199;-82
2023/07/16 12:08:55;;;;;;;5.80;5.20;;;27.30;99.90;;;;;;4940195;29;20290;-79
2023/07/16 12:11:22;;;;;;;5.90;5.30;;;27.20;99.90;;;;;;4937960;29;20279;-78
2023/07/16 12:13:50;;;;;;;6.03;5.50;;;27.20;99.90;;;;;;4938175;29;20207;-78
2023/07/16 12:16:17;;;;;;;5.93;5.33;;;27.20;99.90;;;;;;4936240;29;20223;-77
2023/07/16 12:18:44;;;;;;;5.90;5.30;;;27.00;99.90;;;;;;4938502;29;20223;-78
2023/07/16 12:21:11;;;;;;;5.37;4.93;;;26.80;99.90;;;;;;4941271;29;20207;-78
2023/07/16 12:23:37;;;;;;;5.20;4.80;;;27.00;99.90;;;;;;4940128;29;20329;-78
2023/07/16 12:26:04;;;;;;;5.17;4.77;;;27.20;99.90;;;;;;4940791;29;20632;-79
2023/07/16 12:28:31;;;;;;;5.20;4.90;;;27.20;99.90;;;;;;4934565;29;20292;-78
2023/07/16 12:30:59;;;;;;;5.60;5.10;;;26.90;99.90;;;;;;4939951;29;20199;-78
2023/07/16 12:33:26;;;;;;;5.80;5.20;;;26.80;99.90;;;;;;4942794;29;20204;-78
2023/07/16 12:35:53;;;;;;;5.60;5.20;;;26.70;99.90;;;;;;4938675;29;20207;-79
2023/07/16 12:38:20;;;;;;;6.13;5.53;;;26.60;99.90;;;;;;4944699;28;20738;-77
2023/07/16 12:40:47;;;;;;;6.17;5.67;;;26.50;99.90;;;;;;4936003;29;20207;-79
2023/07/16 12:43:14;;;;;;;5.87;5.23;;;26.50;99.90;;;;;;4940612;29;20241;-78
2023/07/16 12:45:41;;;;;;;6.30;5.70;;;26.60;99.90;;;;;;4938776;29;20610;-78
2023/07/16 12:48:09;;;;;;;6.40;5.80;;;26.70;99.90;;;;;;4938818;29;20204;-78